Time;durP1;ratioP1;P1;durP2;ratioP2;P2;SDS_P1;SDS_P2;PMS_P1;PMS_P2;Temp;Humidity;BMP_temperature;BMP_pressure;BME280_temperature;BME280_humidity;BME280_pressure;Samples;Min_cycle;Max_cycle;Signal;HPM_P1;HPM_P2
2022/06/19 00:00:14;;;;;;;15.73;4.45;;;26.80;62.70;;;;;;5095460;28;20020;-62
2022/06/19 00:02:42;;;;;;;15.23;3.70;;;26.70;62.60;;;;;;5095528;28;20435;-61
2022/06/19 00:05:08;;;;;;;21.58;3.85;;;26.70;62.50;;;;;;5096295;28;20031;-61
2022/06/19 00:07:35;;;;;;;17.05;3.92;;;26.70;62.40;;;;;;5095580;28;20024;-62
2022/06/19 00:10:00;;;;;;;21.55;3.97;;;26.70;62.50;;;;;;5096025;28;20357;-62
2022/06/19 00:12:27;;;;;;;18.77;4.13;;;26.70;62.40;;;;;;5096328;28;20031;-63
2022/06/19 00:14:52;;;;;;;13.05;3.35;;;26.70;62.80;;;;;;5096418;28;20437;-62
2022/06/19 00:17:18;;;;;;;9.70;3.13;;;26.70;63.00;;;;;;5096735;28;20099;-62
2022/06/19 00:19:44;;;;;;;13.48;3.72;;;26.60;63.10;;;;;;5096817;28;20473;-62
2022/06/19 00:22:10;;;;;;;19.38;5.50;;;26.50;63.80;;;;;;5096553;28;20024;-62
2022/06/19 00:24:36;;;;;;;14.20;4.03;;;26.50;63.60;;;;;;5096075;28;20028;-62
2022/06/19 00:27:01;;;;;;;17.08;4.22;;;26.50;64.00;;;;;;5095490;28;20032;-62
2022/06/19 00:29:28;;;;;;;14.60;3.85;;;26.40;63.90;;;;;;5095216;28;20108;-62
2022/06/19 00:31:54;;;;;;;14.90;3.72;;;26.30;63.90;;;;;;5094741;28;20020;-62
2022/06/19 00:34:20;;;;;;;15.25;3.72;;;26.30;63.80;;;;;;5095019;28;20016;-61
2022/06/19 00:36:49;;;;;;;13.60;4.13;;;26.30;64.10;;;;;;5095806;28;20020;-62
2022/06/19 00:39:16;;;;;;;15.27;4.20;;;26.20;64.50;;;;;;5094894;28;20337;-62
2022/06/19 00:41:41;;;;;;;17.17;3.75;;;26.20;64.60;;;;;;5094654;28;20057;-63
2022/06/19 00:44:10;;;;;;;16.00;4.63;;;26.10;64.60;;;;;;5094668;28;20127;-62
2022/06/19 00:46:55;;;;;;;13.70;3.83;;;26.10;64.70;;;;;;5094511;28;20056;-62
2022/06/19 00:49:51;;;;;;;13.88;4.07;;;26.00;65.00;;;;;;5095045;28;20024;-62
2022/06/19 00:52:23;;;;;;;17.90;4.57;;;26.00;65.50;;;;;;5093418;28;20040;-62
2022/06/19 00:54:51;;;;;;;16.40;3.80;;;25.90;65.90;;;;;;5094657;28;20053;-62
2022/06/19 00:57:17;;;;;;;18.95;4.25;;;25.90;66.20;;;;;;5094400;28;20481;-62
2022/06/19 00:59:44;;;;;;;;;;;25.80;66.50;;;;;;5094856;28;20062;-62
2022/06/19 01:02:12;;;;;;;14.27;4.35;;;25.80;65.80;;;;;;5094185;28;19926;-62
2022/06/19 01:04:48;;;;;;;15.25;4.60;;;25.70;66.50;;;;;;5094295;28;20380;-62
2022/06/19 01:07:16;;;;;;;20.38;5.57;;;25.70;66.80;;;;;;5094652;28;20047;-62
2022/06/19 01:09:41;;;;;;;13.38;4.93;;;25.70;67.10;;;;;;5094532;28;20031;-62
2022/06/19 01:12:08;;;;;;;;;;;25.70;67.50;;;;;;5095449;28;20016;-62
2022/06/19 01:14:35;;;;;;;16.25;4.85;;;25.70;67.80;;;;;;5104709;28;19904;-63
2022/06/19 01:17:02;;;;;;;8.48;4.00;;;25.60;68.10;;;;;;5107213;28;20418;-61
2022/06/19 01:19:36;;;;;;;15.95;5.03;;;25.50;68.50;;;;;;5106630;28;20027;-63
2022/06/19 01:22:36;;;;;;;17.48;4.85;;;25.50;68.60;;;;;;5105848;28;20048;-62
2022/06/19 01:25:16;;;;;;;14.73;4.38;;;25.50;68.70;;;;;;5098730;28;20059;-62
2022/06/19 01:30:37;;;;;;;13.73;5.30;;;25.40;69.00;;;;;;5095185;28;20023;-61
2022/06/19 01:33:08;;;;;;;16.98;4.50;;;25.40;69.10;;;;;;5094836;28;20032;-63
2022/06/19 01:35:36;;;;;;;13.77;4.50;;;25.30;68.80;;;;;;5095799;28;20115;-63
2022/06/19 01:38:08;;;;;;;15.27;4.22;;;25.30;68.90;;;;;;5076577;28;20574;-61
2022/06/19 01:40:35;;;;;;;11.73;4.25;;;25.30;69.20;;;;;;5094963;28;20028;-62
2022/06/19 01:43:03;;;;;;;15.30;4.57;;;25.30;69.40;;;;;;5076591;28;20487;-63
2022/06/19 01:45:29;;;;;;;16.27;4.50;;;25.30;69.20;;;;;;5095456;28;20028;-63
2022/06/19 01:47:55;;;;;;;18.02;3.80;;;25.20;69.40;;;;;;5077172;28;20024;-60
2022/06/19 01:50:24;;;;;;;;;;;25.20;70.00;;;;;;5095701;28;20024;-62
2022/06/19 01:52:55;;;;;;;11.20;3.60;;;25.10;70.10;;;;;;5095682;28;19903;-63
2022/06/19 01:55:21;;;;;;;14.57;4.70;;;25.00;70.30;;;;;;5096126;28;20024;-62
2022/06/19 01:57:51;;;;;;;16.00;4.22;;;25.20;70.40;;;;;;5095051;28;20028;-61
2022/06/19 02:00:21;;;;;;;17.77;4.63;;;25.20;69.80;;;;;;5093825;28;20028;-62
2022/06/19 02:02:54;;;;;;;15.18;3.47;;;25.00;70.10;;;;;;5093051;28;20054;-61
2022/06/19 02:05:20;;;;;;;10.35;4.45;;;25.00;70.60;;;;;;5093564;28;20050;-62
2022/06/19 02:07:46;;;;;;;;;;;24.90;70.40;;;;;;5093584;28;20055;-60
2022/06/19 02:10:12;;;;;;;12.93;3.83;;;24.90;70.70;;;;;;5092842;28;20069;-62
2022/06/19 02:12:37;;;;;;;;;;;24.80;71.10;;;;;;5093652;28;20169;-63
2022/06/19 02:15:08;;;;;;;12.77;4.10;;;24.80;70.80;;;;;;5094087;28;19904;-61
2022/06/19 02:17:52;;;;;;;13.10;4.22;;;24.80;71.10;;;;;;5093237;28;20472;-63
2022/06/19 02:20:19;;;;;;;21.02;4.40;;;24.70;71.20;;;;;;5075045;28;20469;-62
2022/06/19 02:22:45;;;;;;;17.98;4.65;;;24.70;71.40;;;;;;5092881;28;20059;-62
2022/06/19 02:25:11;;;;;;;;;;;24.70;71.90;;;;;;5093953;28;20038;-61
2022/06/19 02:27:38;;;;;;;11.05;3.53;;;24.70;72.00;;;;;;5093033;28;19908;-64
2022/06/19 02:30:06;;;;;;;15.15;3.83;;;24.60;72.50;;;;;;5093435;28;20028;-63
2022/06/19 02:32:40;;;;;;;14.55;3.80;;;24.60;72.90;;;;;;5092975;28;20032;-61
2022/06/19 02:35:11;;;;;;;16.40;4.35;;;24.60;73.60;;;;;;5093885;28;20031;-62
2022/06/19 02:37:42;;;;;;;17.10;4.03;;;24.60;73.90;;;;;;5093190;28;20024;-62
2022/06/19 02:40:43;;;;;;;12.18;3.97;;;24.40;74.50;;;;;;5093130;28;20122;-61
2022/06/19 02:43:19;;;;;;;10.70;3.60;;;24.30;74.50;;;;;;5093189;28;20367;-61
2022/06/19 02:45:44;;;;;;;15.45;4.38;;;24.20;75.10;;;;;;5075513;28;20020;-62
2022/06/19 02:48:17;;;;;;;;;;;24.10;75.30;;;;;;5094246;28;20035;-61
2022/06/19 02:50:43;;;;;;;14.48;4.15;;;24.20;75.80;;;;;;5075688;28;20006;-62
2022/06/19 02:53:09;;;;;;;;;;;24.10;75.60;;;;;;5094867;28;20050;-62
2022/06/19 02:55:35;;;;;;;17.10;3.40;;;24.10;74.90;;;;;;5092949;28;20292;-62
2022/06/19 02:58:00;;;;;;;;;;;24.00;74.20;;;;;;5093392;28;20032;-62
2022/06/19 03:00:27;;;;;;;11.05;3.45;;;23.90;74.90;;;;;;5092973;28;19904;-62
2022/06/19 03:03:00;;;;;;;11.38;3.30;;;23.90;75.10;;;;;;5093120;28;20032;-63
2022/06/19 03:05:28;;;;;;;14.02;3.85;;;24.00;75.40;;;;;;5092793;28;20427;-63
2022/06/19 03:07:54;;;;;;;12.95;3.13;;;24.00;74.80;;;;;;5092431;28;20028;-62
2022/06/19 03:10:20;;;;;;;14.88;4.05;;;24.00;75.10;;;;;;5074455;28;20020;-62
2022/06/19 03:12:46;;;;;;;;;;;24.10;75.10;;;;;;5093011;28;20486;-62
2022/06/19 03:15:13;;;;;;;15.05;3.90;;;24.00;74.90;;;;;;5092307;28;19904;-62
2022/06/19 03:17:40;;;;;;;16.05;3.60;;;24.00;75.00;;;;;;5092429;28;20021;-62
2022/06/19 03:20:07;;;;;;;13.70;3.97;;;24.00;75.60;;;;;;5092581;28;20066;-62
2022/06/19 03:22:32;;;;;;;15.30;4.20;;;23.90;75.70;;;;;;5092991;28;20519;-62
2022/06/19 03:24:58;;;;;;;;;;;23.90;75.80;;;;;;5096605;28;20032;-62
2022/06/19 03:27:23;;;;;;;14.50;3.60;;;23.90;76.10;;;;;;5096477;28;20361;-62
2022/06/19 03:29:49;;;;;;;;;;;23.80;75.90;;;;;;5096707;28;20103;-62
2022/06/19 03:32:15;;;;;;;13.85;3.75;;;23.80;76.60;;;;;;5095816;28;19920;-62
2022/06/19 03:34:42;;;;;;;;;;;23.80;76.00;;;;;;5096133;28;20150;-62
2022/06/19 03:37:07;;;;;;;14.68;3.97;;;23.80;76.00;;;;;;5095840;28;19911;-62
2022/06/19 03:39:33;;;;;;;;;;;23.80;76.10;;;;;;5096367;28;20032;-62
2022/06/19 03:41:58;;;;;;;10.38;3.28;;;23.80;76.20;;;;;;5095674;28;19904;-62
2022/06/19 03:44:24;;;;;;;;;;;23.80;76.70;;;;;;5096676;28;20031;-62
2022/06/19 03:46:49;;;;;;;13.93;3.40;;;23.80;76.90;;;;;;5096223;28;20249;-62
2022/06/19 03:49:15;;;;;;;;;;;23.80;77.00;;;;;;5096377;28;20099;-62
2022/06/19 03:51:40;;;;;;;7.95;3.20;;;23.80;77.40;;;;;;5095874;28;19954;-64
2022/06/19 03:54:08;;;;;;;;;;;23.80;77.50;;;;;;5095910;28;20509;-62
2022/06/19 03:56:34;;;;;;;13.02;4.03;;;23.80;77.90;;;;;;5095895;28;19904;-62
2022/06/19 03:59:00;;;;;;;14.60;3.65;;;23.80;78.20;;;;;;5095354;28;20082;-62
2022/06/19 04:01:28;;;;;;;;;;;23.80;78.30;;;;;;5095718;28;20028;-62
2022/06/19 04:03:55;;;;;;;14.27;3.70;;;23.80;78.50;;;;;;5095484;28;19904;-62
2022/06/19 04:06:26;;;;;;;10.82;4.53;;;23.80;78.80;;;;;;5095566;28;20048;-62
2022/06/19 04:08:52;;;;;;;8.68;3.00;;;23.80;79.00;;;;;;5095175;28;20047;-62
2022/06/19 04:11:20;;;;;;;12.32;3.80;;;23.80;79.20;;;;;;5095080;28;20024;-62
2022/06/19 04:13:46;;;;;;;10.90;3.67;;;23.80;79.90;;;;;;5094859;28;20020;-61
2022/06/19 04:16:19;;;;;;;;;;;23.80;80.00;;;;;;5095281;28;20020;-62
2022/06/19 04:18:45;;;;;;;20.70;3.80;;;23.80;80.30;;;;;;5076859;28;19918;-61
2022/06/19 04:21:13;;;;;;;13.38;3.67;;;23.80;80.50;;;;;;5095023;28;20073;-61
2022/06/19 04:23:39;;;;;;;14.45;3.53;;;23.80;80.40;;;;;;5095052;28;20089;-61
2022/06/19 04:26:09;;;;;;;;;;;23.80;80.70;;;;;;5095321;28;20465;-62
2022/06/19 04:28:35;;;;;;;16.92;4.25;;;23.90;81.00;;;;;;5094980;28;19908;-61
2022/06/19 04:31:00;;;;;;;;;;;23.90;81.10;;;;;;5095545;28;20077;-61
2022/06/19 04:33:26;;;;;;;11.02;3.92;;;23.90;81.20;;;;;;5093948;28;19974;-61
2022/06/19 04:35:51;;;;;;;;;;;23.90;80.90;;;;;;5094990;28;20024;-62
2022/06/19 04:38:17;;;;;;;13.77;3.95;;;24.00;80.50;;;;;;5076292;28;19911;-61
2022/06/19 04:40:43;;;;;;;;;;;24.00;80.50;;;;;;5095126;28;20062;-61
2022/06/19 04:43:10;;;;;;;14.35;4.50;;;24.20;80.60;;;;;;5094473;28;19987;-62
2022/06/19 04:45:35;;;;;;;13.73;4.03;;;24.10;80.50;;;;;;5094467;28;20047;-61
2022/06/19 04:48:01;;;;;;;;;;;24.10;80.80;;;;;;5095757;28;20070;-61
2022/06/19 04:50:27;;;;;;;11.73;3.63;;;24.20;80.80;;;;;;5095638;28;19904;-61
2022/06/19 04:52:52;;;;;;;;;;;24.20;80.90;;;;;;5095904;28;20042;-62
2022/06/19 04:55:18;;;;;;;15.05;4.45;;;24.20;80.90;;;;;;5094541;28;19904;-62
2022/06/19 04:57:44;;;;;;;14.63;4.00;;;24.20;80.90;;;;;;5094336;28;20024;-61
2022/06/19 05:00:14;;;;;;;15.10;3.83;;;24.30;80.10;;;;;;5094287;28;20081;-62
2022/06/19 05:02:40;;;;;;;15.95;3.63;;;24.30;80.20;;;;;;5093796;28;20027;-62
2022/06/19 05:05:06;;;;;;;;;;;24.30;79.90;;;;;;5094617;28;20123;-62
2022/06/19 05:07:33;;;;;;;11.15;3.60;;;24.30;80.20;;;;;;5094075;28;19951;-64
2022/06/19 05:09:59;;;;;;;14.27;4.00;;;24.30;80.40;;;;;;5094128;28;20073;-63
2022/06/19 05:12:26;;;;;;;15.60;3.75;;;24.40;80.80;;;;;;5093833;28;20020;-63
2022/06/19 05:14:55;;;;;;;17.83;4.35;;;24.50;79.10;;;;;;5093977;28;20430;-63
2022/06/19 05:17:21;;;;;;;12.05;3.67;;;24.60;79.00;;;;;;5093868;28;20055;-63
2022/06/19 05:19:46;;;;;;;;;;;24.60;79.90;;;;;;5094277;28;20024;-63
2022/06/19 05:22:12;;;;;;;12.45;3.55;;;24.70;79.70;;;;;;5093808;28;19908;-64
2022/06/19 05:24:38;;;;;;;;;;;24.80;79.60;;;;;;5094061;28;20111;-63
2022/06/19 05:27:09;;;;;;;14.30;4.18;;;24.90;79.40;;;;;;5075239;28;20024;-63
2022/06/19 05:29:35;;;;;;;15.90;3.88;;;24.90;79.10;;;;;;5093718;28;20016;-62
2022/06/19 05:32:04;;;;;;;10.55;3.60;;;24.90;79.10;;;;;;5093407;28;20020;-62
2022/06/19 05:34:30;;;;;;;16.65;4.03;;;25.00;78.40;;;;;;5093490;28;20012;-62
2022/06/19 05:36:55;;;;;;;10.93;4.05;;;25.00;78.60;;;;;;5093973;28;20069;-63
2022/06/19 05:39:21;;;;;;;;;;;25.00;78.40;;;;;;5094081;28;20036;-62
2022/06/19 05:41:46;;;;;;;13.98;3.65;;;25.10;78.30;;;;;;5093299;28;20024;-62
2022/06/19 05:44:12;;;;;;;;;;;25.10;77.80;;;;;;5094210;28;20036;-62
2022/06/19 05:46:38;;;;;;;12.80;3.72;;;25.20;77.70;;;;;;5092917;28;19915;-62
2022/06/19 05:49:03;;;;;;;;;;;25.30;77.60;;;;;;5093682;28;20020;-62
2022/06/19 05:51:31;;;;;;;12.52;3.50;;;25.40;77.80;;;;;;5093196;28;19953;-62
2022/06/19 05:53:57;;;;;;;13.02;3.80;;;25.40;77.80;;;;;;5093140;28;20032;-62
2022/06/19 05:56:24;;;;;;;12.02;3.25;;;25.50;77.60;;;;;;5093141;28;20028;-62
2022/06/19 05:58:50;;;;;;;18.15;4.13;;;25.50;77.50;;;;;;5074837;28;20028;-62
2022/06/19 06:01:16;;;;;;;;;;;25.60;77.90;;;;;;5093755;28;20035;-62
2022/06/19 06:03:42;;;;;;;12.20;3.45;;;25.70;77.60;;;;;;5075556;28;19904;-62
2022/06/19 06:06:13;;;;;;;10.70;3.17;;;25.70;78.10;;;;;;5093044;28;20020;-62
2022/06/19 06:08:39;;;;;;;14.95;4.18;;;25.80;77.70;;;;;;5093184;28;20028;-63
2022/06/19 06:11:05;;;;;;;;;;;25.90;77.10;;;;;;5093392;28;20027;-63
2022/06/19 06:13:31;;;;;;;16.67;3.78;;;26.00;77.00;;;;;;5092910;28;19911;-63
2022/06/19 06:15:57;;;;;;;10.65;3.40;;;26.10;77.00;;;;;;5092813;28;20075;-63
2022/06/19 06:18:23;;;;;;;10.60;3.38;;;26.20;76.90;;;;;;5074343;28;20028;-63
2022/06/19 06:20:56;;;;;;;13.57;3.65;;;26.30;76.60;;;;;;5093209;28;20531;-63
2022/06/19 06:23:23;;;;;;;13.50;3.97;;;26.40;76.70;;;;;;5092688;28;20028;-63
2022/06/19 06:26:10;;;;;;;12.93;3.67;;;26.40;76.70;;;;;;5092891;28;20082;-64
2022/06/19 06:28:41;;;;;;;13.18;4.47;;;26.50;76.50;;;;;;5092915;28;20024;-63
2022/06/19 06:31:07;;;;;;;8.82;3.08;;;26.60;76.30;;;;;;5092707;28;20032;-61
2022/06/19 06:33:32;;;;;;;11.65;3.50;;;26.60;76.30;;;;;;5092702;28;20040;-63
2022/06/19 06:35:59;;;;;;;14.10;3.95;;;26.60;76.50;;;;;;5074544;28;20020;-64
2022/06/19 06:38:25;;;;;;;17.35;3.90;;;26.70;76.50;;;;;;5092981;28;20103;-64
2022/06/19 06:40:51;;;;;;;24.67;4.28;;;26.80;76.50;;;;;;5074825;28;20115;-64
2022/06/19 06:43:17;;;;;;;15.60;4.25;;;26.90;76.20;;;;;;5092893;28;20053;-64
2022/06/19 06:45:43;;;;;;;14.68;4.50;;;26.90;76.10;;;;;;5092742;28;20039;-64
2022/06/19 06:48:09;;;;;;;10.57;3.28;;;27.10;76.00;;;;;;5092582;28;20032;-64
2022/06/19 06:50:36;;;;;;;16.40;3.70;;;27.10;75.70;;;;;;5092633;28;20023;-64
2022/06/19 06:53:02;;;;;;;15.35;4.05;;;27.40;74.50;;;;;;5092581;28;20028;-65
2022/06/19 06:55:27;;;;;;;15.40;3.92;;;27.60;73.40;;;;;;5093024;28;20377;-64
2022/06/19 06:57:53;;;;;;;14.93;4.07;;;27.70;73.10;;;;;;5095648;28;20024;-62
2022/06/19 07:00:23;;;;;;;16.25;4.88;;;27.80;72.70;;;;;;5096916;28;20392;-62
2022/06/19 07:02:50;;;;;;;12.52;4.13;;;27.90;72.50;;;;;;5097127;28;20035;-62
2022/06/19 07:05:16;;;;;;;13.48;3.90;;;28.00;72.30;;;;;;5097425;28;20457;-62
2022/06/19 07:07:41;;;;;;;20.85;6.07;;;28.10;72.10;;;;;;5098348;28;20073;-62
2022/06/19 07:10:08;;;;;;;14.70;4.22;;;28.20;71.70;;;;;;5097448;28;20020;-61
2022/06/19 07:12:34;;;;;;;15.00;4.50;;;28.40;71.50;;;;;;5079631;28;20054;-61
2022/06/19 07:14:59;;;;;;;15.02;4.03;;;28.50;71.20;;;;;;5097573;28;20136;-63
2022/06/19 07:17:25;;;;;;;11.07;5.03;;;28.70;71.00;;;;;;5097161;28;20032;-61
2022/06/19 07:19:51;;;;;;;14.07;4.65;;;28.80;70.70;;;;;;5096718;28;20035;-61
2022/06/19 07:22:18;;;;;;;18.35;4.88;;;28.90;70.50;;;;;;5095947;28;20027;-60
2022/06/19 07:24:46;;;;;;;15.85;4.43;;;29.10;70.60;;;;;;5096153;28;20035;-60
2022/06/19 07:27:12;;;;;;;10.57;4.20;;;29.20;70.10;;;;;;5077493;28;20077;-60
2022/06/19 07:29:45;;;;;;;18.60;4.45;;;29.30;70.40;;;;;;5095779;28;20036;-61
2022/06/19 07:32:12;;;;;;;11.90;4.18;;;29.40;70.30;;;;;;5095740;28;20028;-62
2022/06/19 07:34:38;;;;;;;19.75;5.68;;;29.50;70.30;;;;;;5096447;28;20423;-63
2022/06/19 07:37:05;;;;;;;16.08;5.13;;;29.60;70.10;;;;;;5095753;28;20066;-63
2022/06/19 07:39:32;;;;;;;10.45;4.85;;;29.80;70.00;;;;;;5095735;28;20035;-63
2022/06/19 07:41:58;;;;;;;13.15;5.05;;;29.90;69.20;;;;;;5095594;28;20040;-63
2022/06/19 07:44:23;;;;;;;13.90;5.05;;;30.10;69.20;;;;;;5096068;28;20070;-62
2022/06/19 07:52:31;;;;;;;11.82;5.50;;;33.70;62.40;;;;;;5013857;28;20073;-62
2022/06/19 07:54:57;;;;;;;12.30;5.20;;;34.50;60.20;;;;;;5013595;28;20065;-63
2022/06/19 07:57:22;;;;;;;11.98;5.30;;;34.60;59.30;;;;;;5013510;28;20036;-64
2022/06/19 07:59:48;;;;;;;12.57;5.82;;;34.30;58.90;;;;;;5013828;28;20072;-63
2022/06/19 08:02:13;;;;;;;14.75;5.68;;;33.80;59.80;;;;;;5013055;28;20046;-63
2022/06/19 08:04:39;;;;;;;11.40;5.50;;;33.40;59.80;;;;;;5013686;28;20495;-64
2022/06/19 08:07:04;;;;;;;8.25;4.63;;;33.80;59.90;;;;;;5013011;28;20390;-64
2022/06/19 08:09:30;;;;;;;10.90;5.20;;;34.60;58.90;;;;;;5012463;28;20049;-64
2022/06/19 08:11:55;;;;;;;10.32;5.25;;;35.30;57.30;;;;;;5013096;28;20030;-63
2022/06/19 08:14:21;;;;;;;11.02;5.35;;;36.30;56.70;;;;;;5013180;28;20192;-64
2022/06/19 08:16:46;;;;;;;10.60;5.28;;;37.60;55.40;;;;;;5012963;28;20026;-65
2022/06/19 08:19:12;;;;;;;12.50;5.00;;;38.30;53.90;;;;;;5013060;28;20543;-63
2022/06/19 08:21:37;;;;;;;10.40;5.60;;;38.60;53.20;;;;;;5013108;28;20030;-64
2022/06/19 08:24:03;;;;;;;9.85;4.75;;;39.40;52.40;;;;;;5013047;28;20022;-64
2022/06/19 08:26:29;;;;;;;6.47;4.40;;;39.60;52.10;;;;;;5013067;28;20022;-63
2022/06/19 08:29:00;;;;;;;11.45;5.32;;;40.20;51.60;;;;;;5082753;28;20046;-62
2022/06/19 08:31:26;;;;;;;10.57;4.53;;;40.60;51.00;;;;;;5095231;28;20044;-63
2022/06/19 08:33:52;;;;;;;10.32;4.82;;;41.10;49.80;;;;;;5094699;28;20067;-65
2022/06/19 08:36:18;;;;;;;8.85;4.82;;;40.80;49.50;;;;;;5095099;28;20072;-65
2022/06/19 08:38:48;;;;;;;10.27;4.72;;;40.40;49.40;;;;;;5094920;28;20042;-65
2022/06/19 08:41:33;;;;;;;10.15;5.07;;;40.30;49.60;;;;;;5094532;28;20032;-64
2022/06/19 08:44:46;;;;;;;8.77;4.68;;;39.30;50.00;;;;;;5094769;28;20370;-64
2022/06/19 08:47:21;;;;;;;7.85;4.60;;;40.40;49.80;;;;;;5032002;28;20033;-64
2022/06/19 08:49:55;;;;;;;13.38;4.90;;;40.40;48.90;;;;;;5085467;28;20032;-66
2022/06/19 08:53:09;;;;;;;7.95;4.50;;;40.50;48.70;;;;;;5094299;28;20016;-66
2022/06/19 08:55:38;;;;;;;6.55;4.13;;;41.20;49.00;;;;;;5078162;28;20028;-65
2022/06/19 08:58:27;;;;;;;12.02;4.82;;;41.70;48.00;;;;;;5094361;28;20078;-66
2022/06/19 09:01:14;;;;;;;8.55;4.43;;;41.40;47.70;;;;;;5094614;28;20106;-65
2022/06/19 09:06:52;;;;;;;8.00;3.85;;;42.10;47.00;;;;;;5094111;28;20076;-65
2022/06/19 09:09:33;;;;;;;8.90;3.92;;;42.30;46.40;;;;;;5094021;28;20507;-65
2022/06/19 09:12:14;;;;;;;9.43;4.25;;;41.80;46.80;;;;;;5094045;28;20121;-64
2022/06/19 09:14:58;;;;;;;8.00;4.25;;;41.90;46.60;;;;;;5094127;28;20024;-64
2022/06/19 09:17:44;;;;;;;8.82;4.60;;;41.80;46.70;;;;;;5094028;28;20081;-64
2022/06/19 09:20:37;;;;;;;8.57;3.90;;;41.50;47.10;;;;;;5093258;28;20020;-65
2022/06/19 09:23:32;;;;;;;8.20;4.38;;;42.10;46.70;;;;;;5093560;28;20047;-65
2022/06/19 09:26:07;;;;;;;9.20;4.47;;;42.40;45.80;;;;;;5094012;28;20024;-65
2022/06/19 09:28:52;;;;;;;8.43;4.43;;;42.30;45.90;;;;;;5094088;28;20057;-65
2022/06/19 09:31:23;;;;;;;8.63;3.85;;;42.90;45.60;;;;;;5094200;28;20027;-65
2022/06/19 09:34:09;;;;;;;8.02;4.10;;;43.10;45.70;;;;;;5093395;28;20522;-64
2022/06/19 09:36:47;;;;;;;7.35;4.53;;;43.20;45.60;;;;;;5093351;28;20054;-64
2022/06/19 09:39:25;;;;;;;7.72;4.60;;;43.90;45.50;;;;;;5093484;28;20031;-64
2022/06/19 09:41:56;;;;;;;13.35;4.90;;;44.00;44.90;;;;;;5093385;28;20024;-64
2022/06/19 09:44:32;;;;;;;8.65;4.32;;;43.60;45.10;;;;;;5093690;28;20032;-65
2022/06/19 09:47:38;;;;;;;9.45;5.05;;;43.40;45.20;;;;;;5093249;28;20028;-64
2022/06/19 09:50:21;;;;;;;7.82;4.18;;;43.20;45.00;;;;;;5030915;28;20108;-64
2022/06/19 09:53:24;;;;;;;7.07;4.30;;;42.40;45.00;;;;;;5089625;28;20129;-63
2022/06/19 09:55:55;;;;;;;8.00;4.40;;;42.60;45.40;;;;;;5069274;28;20093;-63
2022/06/19 09:58:34;;;;;;;7.70;4.43;;;42.70;45.20;;;;;;5093209;28;20020;-62
2022/06/19 10:01:03;;;;;;;8.82;4.53;;;42.50;45.50;;;;;;5093112;28;20031;-63
2022/06/19 10:03:38;;;;;;;7.65;4.32;;;42.60;45.70;;;;;;5074734;28;20107;-65
2022/06/19 10:06:34;;;;;;;7.75;4.50;;;42.30;45.80;;;;;;5092944;28;20369;-65
2022/06/19 10:09:12;;;;;;;7.88;4.00;;;41.90;46.30;;;;;;5093089;28;20473;-63
2022/06/19 10:11:41;;;;;;;10.40;4.95;;;42.00;46.10;;;;;;5093299;28;20480;-62
2022/06/19 10:14:17;;;;;;;7.28;4.20;;;42.00;46.10;;;;;;5093232;28;20028;-63
2022/06/19 10:16:52;;;;;;;9.82;4.50;;;41.60;46.00;;;;;;5093148;28;20031;-65
2022/06/19 10:19:26;;;;;;;9.90;4.78;;;41.90;46.20;;;;;;5093020;28;20027;-66
2022/06/19 10:22:15;;;;;;;7.72;4.68;;;42.20;46.10;;;;;;5093263;28;20020;-64
2022/06/19 10:25:15;;;;;;;10.15;4.63;;;42.90;46.00;;;;;;5092869;28;20038;-64
2022/06/19 10:28:10;;;;;;;8.38;4.35;;;43.40;45.90;;;;;;5092679;28;20020;-64
2022/06/19 10:30:47;;;;;;;;;;;44.40;45.10;;;;;;5093486;28;20020;-64
2022/06/19 10:33:25;;;;;;;9.52;4.80;;;44.80;44.90;;;;;;5096222;28;19912;-65
2022/06/19 10:36:02;;;;;;;8.35;4.82;;;44.40;45.00;;;;;;5097540;28;20385;-63
2022/06/19 10:39:04;;;;;;;12.35;4.47;;;44.00;45.10;;;;;;5097223;28;20023;-63
2022/06/19 10:42:06;;;;;;;8.15;4.13;;;44.60;44.90;;;;;;5096767;28;20063;-62
2022/06/19 10:45:04;;;;;;;7.43;4.18;;;44.90;44.30;;;;;;5097075;28;20020;-63
2022/06/19 10:48:05;;;;;;;7.10;3.83;;;44.80;44.50;;;;;;5096886;28;20473;-64
2022/06/19 10:50:39;;;;;;;9.95;4.90;;;44.20;44.70;;;;;;5096901;28;20031;-64
2022/06/19 10:53:25;;;;;;;9.80;4.35;;;43.80;44.70;;;;;;5096782;28;20303;-64
2022/06/19 10:55:53;;;;;;;8.07;4.15;;;43.70;44.70;;;;;;5097047;28;20136;-64
2022/06/19 10:58:25;;;;;;;9.77;4.80;;;43.20;45.10;;;;;;5096509;28;20028;-64
2022/06/19 11:00:57;;;;;;;10.15;4.40;;;43.60;45.20;;;;;;5096292;28;20024;-64
2022/06/19 11:06:31;;;;;;;9.98;5.00;;;43.50;45.30;;;;;;5096518;28;20598;-64
2022/06/19 11:09:02;;;;;;;8.27;4.93;;;43.40;45.10;;;;;;5096141;28;20028;-64
2022/06/19 11:11:30;;;;;;;8.50;4.72;;;42.10;45.70;;;;;;5096333;28;20047;-63
2022/06/19 11:13:58;;;;;;;7.60;4.90;;;40.60;46.60;;;;;;5096146;28;20052;-64
2022/06/19 11:16:24;;;;;;;11.35;3.95;;;39.10;48.10;;;;;;5077898;28;20016;-67
2022/06/19 11:18:53;;;;;;;12.15;5.30;;;38.40;48.80;;;;;;5096475;28;20028;-67
2022/06/19 11:21:23;;;;;;;10.80;4.30;;;38.00;49.70;;;;;;5096341;28;20020;-67
2022/06/19 11:23:49;;;;;;;10.75;4.43;;;37.70;49.90;;;;;;5096533;28;20054;-66
2022/06/19 11:26:18;;;;;;;9.07;4.53;;;37.50;50.30;;;;;;5096076;28;20036;-66
2022/06/19 11:29:09;;;;;;;8.48;4.47;;;37.30;50.40;;;;;;5096027;28;20024;-67
2022/06/19 11:31:39;;;;;;;8.90;4.25;;;37.00;50.80;;;;;;5087434;28;20523;-67
2022/06/19 11:37:25;;;;;;;18.75;5.20;;;36.60;51.30;;;;;;5096497;28;20142;-66
2022/06/19 11:40:19;;;;;;;14.50;5.40;;;36.40;51.40;;;;;;5095930;28;20036;-65
2022/06/19 11:42:46;;;;;;;9.73;4.82;;;36.20;51.50;;;;;;5077361;28;20058;-68
2022/06/19 11:45:15;;;;;;;8.95;4.25;;;36.00;51.90;;;;;;5095254;28;20066;-67
2022/06/19 11:48:07;;;;;;;10.25;4.28;;;36.00;51.70;;;;;;5096896;28;20081;-68
2022/06/19 11:50:32;;;;;;;12.25;4.53;;;35.90;51.90;;;;;;5100549;28;20021;-68
2022/06/19 11:53:00;;;;;;;11.27;4.78;;;35.90;51.90;;;;;;5097782;28;20103;-67
2022/06/19 11:55:28;;;;;;;8.68;4.43;;;36.00;52.00;;;;;;5106121;28;20035;-63
2022/06/19 11:57:58;;;;;;;9.20;4.90;;;35.90;52.10;;;;;;5100649;28;20047;-64
2022/06/19 12:00:33;;;;;;;14.57;5.22;;;35.90;52.30;;;;;;5099820;28;20016;-66
2022/06/19 12:03:04;;;;;;;17.90;4.77;;;36.00;52.50;;;;;;5103461;28;20027;-66
2022/06/19 12:05:39;;;;;;;8.02;4.43;;;35.90;52.20;;;;;;5099653;28;20024;-63
2022/06/19 12:08:24;;;;;;;8.05;4.38;;;36.00;52.30;;;;;;5097601;28;20028;-63
2022/06/19 12:10:57;;;;;;;9.30;4.18;;;35.80;52.40;;;;;;5098197;28;20016;-62
2022/06/19 12:13:37;;;;;;;9.75;4.10;;;35.60;52.70;;;;;;5098303;28;20074;-64
2022/06/19 12:16:21;;;;;;;13.30;4.80;;;35.60;52.90;;;;;;5097926;28;20024;-65
2022/06/19 12:18:48;;;;;;;9.27;4.30;;;35.60;53.10;;;;;;5098050;28;20461;-64
2022/06/19 12:21:31;;;;;;;10.65;4.55;;;35.60;52.80;;;;;;5097546;28;20027;-61
2022/06/19 12:24:17;;;;;;;13.82;4.40;;;35.70;52.60;;;;;;5095665;28;20034;-61
2022/06/19 12:26:48;;;;;;;11.02;5.13;;;35.60;52.60;;;;;;5095992;28;20016;-63
2022/06/19 12:29:48;;;;;;;9.25;4.28;;;35.60;52.60;;;;;;5077155;28;20038;-61
2022/06/19 12:32:43;;;;;;;12.13;4.70;;;35.60;52.50;;;;;;5086859;28;20063;-64
2022/06/19 12:35:19;;;;;;;10.45;4.78;;;35.40;52.80;;;;;;5095176;28;20016;-62
2022/06/19 12:37:44;;;;;;;9.35;4.68;;;35.40;53.20;;;;;;5095132;28;20110;-61
2022/06/19 12:40:16;;;;;;;9.77;4.60;;;35.50;53.10;;;;;;5095469;28;20063;-63
2022/06/19 12:42:55;;;;;;;11.00;5.15;;;35.60;53.20;;;;;;5095386;28;20024;-63
2022/06/19 12:45:44;;;;;;;8.88;4.28;;;35.70;53.00;;;;;;5076814;28;20028;-62
2022/06/19 12:48:30;;;;;;;9.52;4.70;;;35.70;53.00;;;;;;5095239;28;20377;-62
2022/06/19 12:51:01;;;;;;;11.93;4.38;;;35.60;53.20;;;;;;5077128;28;20027;-62
2022/06/19 12:53:41;;;;;;;9.82;4.53;;;35.70;53.10;;;;;;5094843;28;20020;-62
2022/06/19 12:56:10;;;;;;;9.23;4.63;;;35.70;52.70;;;;;;5094757;28;20024;-62
2022/06/19 12:58:57;;;;;;;11.65;5.75;;;35.80;52.60;;;;;;5094824;28;20031;-61
2022/06/19 13:01:42;;;;;;;10.60;4.32;;;35.80;52.50;;;;;;5094933;28;20047;-61
2022/06/19 13:04:46;;;;;;;12.65;4.60;;;35.90;52.40;;;;;;5095316;28;20050;-63
2022/06/19 13:07:29;;;;;;;13.23;4.85;;;36.00;51.90;;;;;;5063511;28;20058;-62
2022/06/19 13:10:01;;;;;;;6.65;4.15;;;35.90;52.00;;;;;;5095215;28;20026;-61
2022/06/19 13:12:57;;;;;;;9.70;4.22;;;35.80;52.40;;;;;;5094521;28;20099;-62
2022/06/19 13:15:41;;;;;;;10.40;4.35;;;35.70;52.10;;;;;;5095064;28;20035;-62
2022/06/19 13:18:32;;;;;;;8.75;4.57;;;35.70;52.80;;;;;;5094837;28;20353;-62
2022/06/19 13:21:09;;;;;;;10.43;4.57;;;35.70;52.60;;;;;;5094368;28;20036;-64
2022/06/19 13:23:39;;;;;;;8.05;3.75;;;35.90;52.10;;;;;;5094440;28;20113;-63
2022/06/19 13:29:49;;;;;;;10.23;4.28;;;36.00;49.30;;;;;;5094623;28;20039;-62
2022/06/19 13:32:53;;;;;;;7.22;3.85;;;36.10;50.90;;;;;;5095693;28;20103;-63